»·PEaware :: N66574 KAJO-KVCV

N66574 :: KAJO-KVCV

FLIGHT INFORMATION

Flight Status: Arrived
Operator: Privately registered:
United States
More flights under this callsign
Pilot: Jordan O. (2051)
Aircraft: CESSNA 172 SKYHAWK
(C172)
More flights by this aircraft type
Origin: KAJO Corona Mun
United States
Destination: KVCV Socal Logistics
United States
More flights between these airports :: More routes between these airports
Route: PDZ V442 APLES
File this flight plan on PilotEdge
Remarks: ODP
Altitude:
(Current/Filed)
9,000ft
Speed:
(Current/Filed)
110kts
Departed: 26-Sep-20 11:02 AM
Arrived: 26-Sep-20 12:16 PM
Distance/Time
Traveled:
43nm/1:14
Distance/Time
To Go:
Arrived

Flight Plot

Page will automatically refresh every two minutes.


Map Options




Map Legend


Flown Route
Filed Route
Departure Airport
Arrival Airport
Navaid (VOR, NDB)
Fix

Horizontal Profiles

Position Reports

Time Latitude Longitude Heading Altitude Ground
Speed
26-Sep-20 10:36 33.897090 -117.607164 1 536ft 0kts
26-Sep-20 10:37 33.897090 -117.607164 1 536ft 0kts
26-Sep-20 10:38 33.897090 -117.607164 1 536ft 0kts
26-Sep-20 10:39 33.897090 -117.607164 1 536ft 0kts
26-Sep-20 10:40 33.897090 -117.607164 1 536ft 0kts
26-Sep-20 10:41 33.897090 -117.607164 1 536ft 0kts
26-Sep-20 10:42 33.897090 -117.607164 1 536ft 0kts
26-Sep-20 10:43 33.897090 -117.607164 1 536ft 0kts
26-Sep-20 10:44 33.897090 -117.607164 1 536ft 0kts
26-Sep-20 10:45 33.897090 -117.607164 1 536ft 0kts
26-Sep-20 10:46 33.897090 -117.607164 1 536ft 0kts
26-Sep-20 10:47 33.897090 -117.607164 1 536ft 0kts
26-Sep-20 10:48 33.897090 -117.607164 1 536ft 0kts
26-Sep-20 10:49 33.897090 -117.607164 1 536ft 0kts
26-Sep-20 10:50 33.897090 -117.607164 1 536ft 0kts
26-Sep-20 10:50 33.897090 -117.607164 1 536ft 0kts
26-Sep-20 10:51 33.897090 -117.607164 1 536ft 0kts
26-Sep-20 10:52 33.897090 -117.607164 1 536ft 0kts
26-Sep-20 10:54 33.897090 -117.607164 1 536ft 0kts
26-Sep-20 10:54 33.897090 -117.607164 1 536ft 0kts
26-Sep-20 10:55 33.897090 -117.607164 1 536ft 0kts
26-Sep-20 10:56 33.897090 -117.607164 1 536ft 0kts
26-Sep-20 10:57 33.897102 -117.607165 357 536ft 0kts
26-Sep-20 10:58 33.897148 -117.607181 337 536ft 0kts
26-Sep-20 10:59 33.897148 -117.607181 337 536ft 0kts
26-Sep-20 11:00 33.897148 -117.607181 337 536ft 0kts
26-Sep-20 11:01 33.897634 -117.604832 86 536ft 61kts
26-Sep-20 11:02 33.898122 -117.577958 70 1533ft 81kts
26-Sep-20 11:03 33.907492 -117.553473 55 2606ft 78kts
26-Sep-20 11:04 33.919585 -117.532794 40 3498ft 88kts
26-Sep-20 11:05 33.938970 -117.509113 48 4236ft 103kts
26-Sep-20 11:06 33.956196 -117.483221 39 5116ft 95kts
26-Sep-20 11:07 33.975767 -117.481713 288 5978ft 85kts
26-Sep-20 11:08 33.953992 -117.493832 170 6014ft 117kts
26-Sep-20 11:09 33.930109 -117.514309 232 6006ft 113kts
26-Sep-20 11:10 33.910591 -117.543232 272 6193ft 114kts
26-Sep-20 11:11 33.931652 -117.549708 39 7132ft 86kts
26-Sep-20 11:12 33.948353 -117.529637 60 7839ft 92kts
26-Sep-20 11:13 33.931441 -117.517077 220 8414ft 101kts
26-Sep-20 11:14 33.914163 -117.541427 284 8971ft 103kts
26-Sep-20 11:15 33.939089 -117.536986 41 9001ft 119kts
26-Sep-20 11:16 33.962944 -117.509486 41 9010ft 117kts
26-Sep-20 11:17 33.988556 -117.486534 12 9018ft 115kts
26-Sep-20 11:18 34.018095 -117.470618 24 9023ft 116kts
26-Sep-20 11:19 34.046424 -117.452354 25 9027ft 114kts
26-Sep-20 11:20 34.074618 -117.434726 24 9032ft 113kts
26-Sep-20 11:21 34.102812 -117.417298 24 9034ft 113kts
26-Sep-20 11:22 34.129505 -117.400857 25 9035ft 113kts
26-Sep-20 11:23 34.157655 -117.383383 25 9036ft 113kts
26-Sep-20 11:24 34.185777 -117.366028 25 9036ft 113kts
26-Sep-20 11:25 34.213910 -117.348662 26 9036ft 113kts
26-Sep-20 11:26 34.241896 -117.330995 25 9036ft 113kts
26-Sep-20 11:27 34.269890 -117.313554 25 9045ft 113kts
26-Sep-20 11:28 34.297973 -117.296165 25 9052ft 113kts
26-Sep-20 11:29 34.326073 -117.278780 25 9058ft 113kts
26-Sep-20 11:30 34.354289 -117.261318 25 9063ft 114kts
26-Sep-20 11:31 34.382558 -117.243794 26 9065ft 114kts
26-Sep-20 11:32 34.411555 -117.225342 25 8974ft 117kts
26-Sep-20 11:33 34.440048 -117.207153 25 8975ft 112kts
26-Sep-20 11:34 34.464917 -117.191460 23 8982ft 94kts
26-Sep-20 11:35 34.490392 -117.176429 23 8988ft 105kts
26-Sep-20 11:36 34.517685 -117.162779 17 8994ft 107kts
26-Sep-20 11:37 34.544201 -117.151267 17 8999ft 96kts
26-Sep-20 11:38 34.570727 -117.145164 4 8823ft 104kts
26-Sep-20 11:39 34.599788 -117.142855 356 8319ft 102kts
26-Sep-20 11:40 34.627493 -117.145588 347 7809ft 98kts
26-Sep-20 11:41 34.654253 -117.152033 342 7305ft 97kts
26-Sep-20 11:42 34.679436 -117.164846 334 6736ft 97kts
26-Sep-20 11:43 34.701855 -117.180704 324 6602ft 86kts
26-Sep-20 11:44 34.722583 -117.198803 316 6611ft 96kts
26-Sep-20 11:45 34.742561 -117.220171 311 6604ft 95kts
26-Sep-20 11:46 34.760962 -117.242927 311 6601ft 93kts
26-Sep-20 11:47 34.772665 -117.270500 286 6602ft 91kts
26-Sep-20 11:48 34.781578 -117.300094 288 6382ft 96kts
26-Sep-20 11:49 34.792399 -117.330758 291 5832ft 99kts
26-Sep-20 11:50 34.795089 -117.362448 265 5235ft 91kts
26-Sep-20 11:51 34.777152 -117.375936 183 4916ft 97kts
26-Sep-20 11:52 34.749865 -117.376362 182 4397ft 94kts
26-Sep-20 11:53 34.724270 -117.378300 181 4302ft 93kts
26-Sep-20 11:54 34.700537 -117.380139 181 4307ft 84kts
26-Sep-20 11:55 34.675489 -117.382089 182 3932ft 90kts
26-Sep-20 11:56 34.651209 -117.384044 181 3405ft 86kts
26-Sep-20 11:57 34.628649 -117.386102 182 3201ft 73kts
26-Sep-20 11:58 34.602310 -117.387199 194 3503ft 112kts
26-Sep-20 11:59 34.605410 -117.415407 312 3845ft 102kts
26-Sep-20 12:00 34.609858 -117.444528 255 4339ft 92kts
26-Sep-20 12:01 34.606347 -117.474386 289 4827ft 93kts
26-Sep-20 12:02 34.616422 -117.506523 281 5469ft 109kts
26-Sep-20 12:03 34.623290 -117.542958 282 6009ft 117kts
26-Sep-20 12:04 34.630784 -117.582717 282 6002ft 115kts
26-Sep-20 12:05 34.649712 -117.601664 45 5440ft 111kts
26-Sep-20 12:06 34.650889 -117.563308 99 5680ft 119kts
26-Sep-20 12:07 34.643928 -117.524241 99 5599ft 118kts
26-Sep-20 12:08 34.636118 -117.485643 106 5186ft 118kts
26-Sep-20 12:09 34.627570 -117.450470 104 4868ft 118kts
26-Sep-20 12:10 34.616332 -117.415242 120 4258ft 102kts
26-Sep-20 12:11 34.621855 -117.395560 359 3896ft 89kts
26-Sep-20 12:12 34.637813 -117.387996 134 3794ft 80kts
26-Sep-20 12:13 34.617109 -117.386639 179 3210ft 73kts
26-Sep-20 12:14 34.596868 -117.386525 179 2877ft 68kts
26-Sep-20 12:15 34.585387 -117.386435 181 2877ft 9kts
26-Sep-20 12:16 34.583241 -117.385911 102 2880ft 17kts
26-Sep-20 12:17 34.584074 -117.382084 179 2878ft 12kts
26-Sep-20 12:18 34.582886 -117.382564 175 2879ft 0kts

Navigation Log

Ident Type
Flight plan parsing failed, navigation log unavailable